sensor_id;sensor_type;location;lat;lon;timestamp;pressure;altitude;pressure_sealevel;temperature
73673;BMP280;61972;19.480;-99.240;2022-12-18T00:01:18;77435.44;;;24.34
73673;BMP280;61972;19.480;-99.240;2022-12-18T00:03:45;77446.03;;;24.37
73673;BMP280;61972;19.480;-99.240;2022-12-18T00:06:12;77454.41;;;24.37
73673;BMP280;61972;19.480;-99.240;2022-12-18T00:08:40;77465.06;;;24.40
73673;BMP280;61972;19.480;-99.240;2022-12-18T00:11:08;77465.44;;;24.38
73673;BMP280;61972;19.480;-99.240;2022-12-18T00:13:35;77468.59;;;24.39
73673;BMP280;61972;19.480;-99.240;2022-12-18T00:16:07;77476.03;;;24.41
73673;BMP280;61972;19.480;-99.240;2022-12-18T00:18:33;77480.16;;;24.40
73673;BMP280;61972;19.480;-99.240;2022-12-18T00:21:05;77487.59;;;24.42
73673;BMP280;61972;19.480;-99.240;2022-12-18T00:23:32;77483.34;;;24.40
73673;BMP280;61972;19.480;-99.240;2022-12-18T00:26:06;77482.38;;;24.42
73673;BMP280;61972;19.480;-99.240;2022-12-18T00:28:32;77478.63;;;24.41
73673;BMP280;61972;19.480;-99.240;2022-12-18T00:31:01;77483.47;;;24.43
73673;BMP280;61972;19.480;-99.240;2022-12-18T00:33:28;77483.47;;;24.43
73673;BMP280;61972;19.480;-99.240;2022-12-18T00:35:54;77481.41;;;24.43
73673;BMP280;61972;19.480;-99.240;2022-12-18T00:38:20;77483.47;;;24.43
73673;BMP280;61972;19.480;-99.240;2022-12-18T00:40:46;77493.94;;;24.43
73673;BMP280;61972;19.480;-99.240;2022-12-18T00:43:12;77500.28;;;24.44
73673;BMP280;61972;19.480;-99.240;2022-12-18T00:45:38;77503.81;;;24.42
73673;BMP280;61972;19.480;-99.240;2022-12-18T00:48:05;77513.31;;;24.44
73673;BMP280;61972;19.480;-99.240;2022-12-18T00:50:31;77514.25;;;24.42
73673;BMP280;61972;19.480;-99.240;2022-12-18T00:52:57;77530.50;;;24.43
73673;BMP280;61972;19.480;-99.240;2022-12-18T00:55:23;77525.25;;;24.43
73673;BMP280;61972;19.480;-99.240;2022-12-18T00:57:51;77532.53;;;24.42
73673;BMP280;61972;19.480;-99.240;2022-12-18T01:00:18;77534.59;;;24.42
73673;BMP280;61972;19.480;-99.240;2022-12-18T01:02:44;77536.66;;;24.41
73673;BMP280;61972;19.480;-99.240;2022-12-18T01:05:12;77540.78;;;24.40
73673;BMP280;61972;19.480;-99.240;2022-12-18T01:07:39;77546.53;;;24.41
73673;BMP280;61972;19.480;-99.240;2022-12-18T01:10:06;77549.53;;;24.39
73673;BMP280;61972;19.480;-99.240;2022-12-18T01:12:32;77559.59;;;24.41
73673;BMP280;61972;19.480;-99.240;2022-12-18T01:14:59;77558.47;;;24.40
73673;BMP280;61972;19.480;-99.240;2022-12-18T01:20:10;77576.38;;;24.42
73673;BMP280;61972;19.480;-99.240;2022-12-18T01:22:36;77579.13;;;24.44
73673;BMP280;61972;19.480;-99.240;2022-12-18T01:25:04;77577.09;;;24.45
73673;BMP280;61972;19.480;-99.240;2022-12-18T01:27:34;77588.25;;;24.48
73673;BMP280;61972;19.480;-99.240;2022-12-18T01:30:00;77589.38;;;24.49
73673;BMP280;61972;19.480;-99.240;2022-12-18T01:32:28;77598.31;;;24.50
73673;BMP280;61972;19.480;-99.240;2022-12-18T01:34:55;77597.94;;;24.52
73673;BMP280;61972;19.480;-99.240;2022-12-18T01:37:21;77594.94;;;24.54
73673;BMP280;61972;19.480;-99.240;2022-12-18T01:39:47;77602.41;;;24.56
73673;BMP280;61972;19.480;-99.240;2022-12-18T01:42:16;77604.63;;;24.58
73673;BMP280;61972;19.480;-99.240;2022-12-18T01:45:05;77601.63;;;24.60
73673;BMP280;61972;19.480;-99.240;2022-12-18T01:52:52;77614.66;;;24.67
73673;BMP280;61972;19.480;-99.240;2022-12-18T01:55:23;77625.09;;;24.67
73673;BMP280;61972;19.480;-99.240;2022-12-18T02:00:20;77622.63;;;24.70
73673;BMP280;61972;19.480;-99.240;2022-12-18T02:02:47;77624.88;;;24.72
73673;BMP280;61972;19.480;-99.240;2022-12-18T02:05:17;77632.72;;;24.72
73673;BMP280;61972;19.480;-99.240;2022-12-18T02:07:58;77632.31;;;24.74
73673;BMP280;61972;19.480;-99.240;2022-12-18T02:10:27;77639.22;;;24.76
73673;BMP280;61972;19.480;-99.240;2022-12-18T02:18:32;77662.53;;;24.80
73673;BMP280;61972;19.480;-99.240;2022-12-18T02:23:56;77662.72;;;24.83
73673;BMP280;61972;19.480;-99.240;2022-12-18T02:26:38;77662.31;;;24.85
73673;BMP280;61972;19.480;-99.240;2022-12-18T02:29:15;77676.50;;;24.86
73673;BMP280;61972;19.480;-99.240;2022-12-18T02:31:50;77686.00;;;24.87
73673;BMP280;61972;19.480;-99.240;2022-12-18T02:34:18;77695.50;;;24.89
73673;BMP280;61972;19.480;-99.240;2022-12-18T02:36:46;77687.84;;;24.91
73673;BMP280;61972;19.480;-99.240;2022-12-18T02:39:22;77688.19;;;24.97
73673;BMP280;61972;19.480;-99.240;2022-12-18T02:41:50;77693.19;;;25.01
73673;BMP280;61972;19.480;-99.240;2022-12-18T02:44:17;77691.50;;;25.07
73673;BMP280;61972;19.480;-99.240;2022-12-18T02:46:50;77696.09;;;25.14
73673;BMP280;61972;19.480;-99.240;2022-12-18T02:49:36;77692.50;;;25.22
73673;BMP280;61972;19.480;-99.240;2022-12-18T02:54:37;77704.94;;;25.36
73673;BMP280;61972;19.480;-99.240;2022-12-18T03:00:30;77700.13;;;25.51
73673;BMP280;61972;19.480;-99.240;2022-12-18T03:03:13;77704.22;;;25.57
73673;BMP280;61972;19.480;-99.240;2022-12-18T03:05:50;77702.47;;;25.63
73673;BMP280;61972;19.480;-99.240;2022-12-18T03:08:42;77706.91;;;25.67
73673;BMP280;61972;19.480;-99.240;2022-12-18T03:11:12;77713.19;;;25.75
73673;BMP280;61972;19.480;-99.240;2022-12-18T03:13:53;77707.16;;;25.79
73673;BMP280;61972;19.480;-99.240;2022-12-18T03:16:28;77715.38;;;25.84
73673;BMP280;61972;19.480;-99.240;2022-12-18T03:19:01;77722.06;;;25.91
73673;BMP280;61972;19.480;-99.240;2022-12-18T03:21:32;77718.63;;;25.95
73673;BMP280;61972;19.480;-99.240;2022-12-18T03:24:09;77721.00;;;25.99
73673;BMP280;61972;19.480;-99.240;2022-12-18T03:26:42;77727.72;;;26.06
73673;BMP280;61972;19.480;-99.240;2022-12-18T03:29:27;77727.47;;;26.10
73673;BMP280;61972;19.480;-99.240;2022-12-18T03:32:04;77726.69;;;26.14
73673;BMP280;61972;19.480;-99.240;2022-12-18T03:34:32;77725.50;;;26.20
73673;BMP280;61972;19.480;-99.240;2022-12-18T03:37:03;77725.66;;;26.23
73673;BMP280;61972;19.480;-99.240;2022-12-18T03:39:29;77722.66;;;26.25
73673;BMP280;61972;19.480;-99.240;2022-12-18T03:47:28;77735.69;;;26.32
73673;BMP280;61972;19.480;-99.240;2022-12-18T03:52:51;77740.13;;;26.36
73673;BMP280;61972;19.480;-99.240;2022-12-18T03:55:19;77745.53;;;26.39
73673;BMP280;61972;19.480;-99.240;2022-12-18T03:57:49;77735.06;;;26.39
73673;BMP280;61972;19.480;-99.240;2022-12-18T04:00:18;77733.53;;;26.40
73673;BMP280;61972;19.480;-99.240;2022-12-18T04:02:50;77739.91;;;26.41
73673;BMP280;61972;19.480;-99.240;2022-12-18T04:05:18;77736.16;;;26.40
73673;BMP280;61972;19.480;-99.240;2022-12-18T04:07:47;77740.13;;;26.36
73673;BMP280;61972;19.480;-99.240;2022-12-18T04:10:15;77741.06;;;26.35
73673;BMP280;61972;19.480;-99.240;2022-12-18T04:12:41;77738.31;;;26.32
73673;BMP280;61972;19.480;-99.240;2022-12-18T04:15:08;77741.47;;;26.33
73673;BMP280;61972;19.480;-99.240;2022-12-18T04:17:34;77741.47;;;26.33
73673;BMP280;61972;19.480;-99.240;2022-12-18T04:20:00;77743.00;;;26.32
73673;BMP280;61972;19.480;-99.240;2022-12-18T04:22:27;77739.25;;;26.31
73673;BMP280;61972;19.480;-99.240;2022-12-18T04:24:53;77740.75;;;26.30
73673;BMP280;61972;19.480;-99.240;2022-12-18T04:27:19;77734.56;;;26.31
73673;BMP280;61972;19.480;-99.240;2022-12-18T04:29:45;77734.56;;;26.31
73673;BMP280;61972;19.480;-99.240;2022-12-18T04:32:11;77735.13;;;26.32
73673;BMP280;61972;19.480;-99.240;2022-12-18T04:34:37;77742.03;;;26.33
73673;BMP280;61972;19.480;-99.240;2022-12-18T04:37:03;77743.16;;;26.34
73673;BMP280;61972;19.480;-99.240;2022-12-18T04:39:29;77745.34;;;26.36
73673;BMP280;61972;19.480;-99.240;2022-12-18T04:41:55;77747.97;;;26.36
73673;BMP280;61972;19.480;-99.240;2022-12-18T04:44:25;77755.84;;;26.36
73673;BMP280;61972;19.480;-99.240;2022-12-18T04:46:54;77750.06;;;26.36
73673;BMP280;61972;19.480;-99.240;2022-12-18T04:49:21;77741.25;;;26.37
73673;BMP280;61972;19.480;-99.240;2022-12-18T04:51:47;77744.41;;;26.38
73673;BMP280;61972;19.480;-99.240;2022-12-18T04:54:17;77749.66;;;26.38
73673;BMP280;61972;19.480;-99.240;2022-12-18T04:56:43;77743.88;;;26.37
73673;BMP280;61972;19.480;-99.240;2022-12-18T04:59:09;77744.97;;;26.38
73673;BMP280;61972;19.480;-99.240;2022-12-18T05:01:35;77741.78;;;26.38
73673;BMP280;61972;19.480;-99.240;2022-12-18T05:06:57;77734.66;;;26.41
73673;BMP280;61972;19.480;-99.240;2022-12-18T05:09:26;77736.31;;;26.43
73673;BMP280;61972;19.480;-99.240;2022-12-18T05:11:52;77741.56;;;26.43
73673;BMP280;61972;19.480;-99.240;2022-12-18T05:14:19;77737.41;;;26.44
73673;BMP280;61972;19.480;-99.240;2022-12-18T05:16:45;77735.78;;;26.42
73673;BMP280;61972;19.480;-99.240;2022-12-18T05:19:11;77736.91;;;26.43
73673;BMP280;61972;19.480;-99.240;2022-12-18T05:21:37;77742.13;;;26.43
73673;BMP280;61972;19.480;-99.240;2022-12-18T05:24:03;77738.00;;;26.44
73673;BMP280;61972;19.480;-99.240;2022-12-18T05:26:33;77737.41;;;26.44
73673;BMP280;61972;19.480;-99.240;2022-12-18T05:29:02;77744.91;;;26.46
73673;BMP280;61972;19.480;-99.240;2022-12-18T05:31:28;77746.56;;;26.47
73673;BMP280;61972;19.480;-99.240;2022-12-18T05:33:57;77737.19;;;26.48
73673;BMP280;61972;19.480;-99.240;2022-12-18T05:36:23;77744.66;;;26.50
73673;BMP280;61972;19.480;-99.240;2022-12-18T05:38:49;77749.50;;;26.52
73673;BMP280;61972;19.480;-99.240;2022-12-18T05:41:18;77742.75;;;26.53
73673;BMP280;61972;19.480;-99.240;2022-12-18T05:43:44;77734.34;;;26.53
73673;BMP280;61972;19.480;-99.240;2022-12-18T05:46:16;77735.84;;;26.52
73673;BMP280;61972;19.480;-99.240;2022-12-18T05:48:44;77734.16;;;26.50
73673;BMP280;61972;19.480;-99.240;2022-12-18T05:51:15;77732.66;;;26.51
73673;BMP280;61972;19.480;-99.240;2022-12-18T05:53:42;77729.50;;;26.51
73673;BMP280;61972;19.480;-99.240;2022-12-18T05:56:18;77728.94;;;26.50
73673;BMP280;61972;19.480;-99.240;2022-12-18T05:58:53;77727.44;;;26.51
73673;BMP280;61972;19.480;-99.240;2022-12-18T06:01:25;77727.56;;;26.54
73673;BMP280;61972;19.480;-99.240;2022-12-18T06:03:51;77728.16;;;26.54
73673;BMP280;61972;19.480;-99.240;2022-12-18T06:06:22;77719.91;;;26.56
73673;BMP280;61972;19.480;-99.240;2022-12-18T06:08:49;77723.22;;;26.60
73673;BMP280;61972;19.480;-99.240;2022-12-18T06:11:21;77723.41;;;26.62
73673;BMP280;61972;19.480;-99.240;2022-12-18T06:13:50;77722.41;;;26.64
73673;BMP280;61972;19.480;-99.240;2022-12-18T06:16:17;77714.19;;;26.66
73673;BMP280;61972;19.480;-99.240;2022-12-18T06:18:43;77714.88;;;26.69
73673;BMP280;61972;19.480;-99.240;2022-12-18T06:21:09;77715.75;;;26.74
73673;BMP280;61972;19.480;-99.240;2022-12-18T06:23:35;77717.88;;;26.84
73673;BMP280;61972;19.480;-99.240;2022-12-18T06:26:06;77712.16;;;26.93
73673;BMP280;61972;19.480;-99.240;2022-12-18T06:28:32;77702.28;;;27.03
73673;BMP280;61972;19.480;-99.240;2022-12-18T06:30:58;77709.81;;;27.15
73673;BMP280;61972;19.480;-99.240;2022-12-18T06:33:27;77706.13;;;27.24
73673;BMP280;61972;19.480;-99.240;2022-12-18T06:35:54;77708.81;;;27.33
73673;BMP280;61972;19.480;-99.240;2022-12-18T06:38:20;77699.31;;;27.42
73673;BMP280;61972;19.480;-99.240;2022-12-18T06:40:46;77694.66;;;27.52
73673;BMP280;61972;19.480;-99.240;2022-12-18T06:43:12;77693.59;;;27.61
73673;BMP280;61972;19.480;-99.240;2022-12-18T06:45:39;77686.88;;;27.72
73673;BMP280;61972;19.480;-99.240;2022-12-18T06:48:05;77684.84;;;27.82
73673;BMP280;61972;19.480;-99.240;2022-12-18T06:50:31;77691.63;;;27.91
73673;BMP280;61972;19.480;-99.240;2022-12-18T06:52:57;77692.63;;;27.99
73673;BMP280;61972;19.480;-99.240;2022-12-18T06:55:23;77694.16;;;28.07
73673;BMP280;61972;19.480;-99.240;2022-12-18T06:57:49;77690.31;;;28.14
73673;BMP280;61972;19.480;-99.240;2022-12-18T07:00:15;77693.22;;;28.19
73673;BMP280;61972;19.480;-99.240;2022-12-18T07:02:42;77703.47;;;28.23
73673;BMP280;61972;19.480;-99.240;2022-12-18T07:05:08;77708.88;;;28.26
73673;BMP280;61972;19.480;-99.240;2022-12-18T07:07:34;77703.75;;;28.29
73673;BMP280;61972;19.480;-99.240;2022-12-18T07:10:01;77704.31;;;28.29
73673;BMP280;61972;19.480;-99.240;2022-12-18T07:12:27;77697.41;;;28.27
73673;BMP280;61972;19.480;-99.240;2022-12-18T07:14:53;77697.25;;;28.25
73673;BMP280;61972;19.480;-99.240;2022-12-18T07:17:19;77695.44;;;28.21
73673;BMP280;61972;19.480;-99.240;2022-12-18T07:19:45;77690.59;;;28.19
73673;BMP280;61972;19.480;-99.240;2022-12-18T07:22:11;77691.44;;;28.15
73673;BMP280;61972;19.480;-99.240;2022-12-18T07:24:37;77685.47;;;28.12
73673;BMP280;61972;19.480;-99.240;2022-12-18T07:27:06;77682.00;;;28.06
73673;BMP280;61972;19.480;-99.240;2022-12-18T07:29:33;77677.03;;;28.01
73673;BMP280;61972;19.480;-99.240;2022-12-18T07:31:59;77677.25;;;27.97
73673;BMP280;61972;19.480;-99.240;2022-12-18T07:34:25;77672.28;;;27.92
73673;BMP280;61972;19.480;-99.240;2022-12-18T07:36:51;77666.75;;;27.87
73673;BMP280;61972;19.480;-99.240;2022-12-18T07:39:17;77677.38;;;27.80
73673;BMP280;61972;19.480;-99.240;2022-12-18T07:41:43;77676.91;;;27.72
73673;BMP280;61972;19.480;-99.240;2022-12-18T07:44:29;77674.41;;;27.65
73673;BMP280;61972;19.480;-99.240;2022-12-18T07:46:55;77666.66;;;27.58
73673;BMP280;61972;19.480;-99.240;2022-12-18T07:49:21;77666.22;;;27.50
73673;BMP280;61972;19.480;-99.240;2022-12-18T07:51:47;77665.34;;;27.44
73673;BMP280;61972;19.480;-99.240;2022-12-18T07:54:15;77658.56;;;27.36
73673;BMP280;61972;19.480;-99.240;2022-12-18T07:56:41;77666.53;;;27.28
73673;BMP280;61972;19.480;-99.240;2022-12-18T07:59:07;77665.13;;;27.22
73673;BMP280;61972;19.480;-99.240;2022-12-18T08:01:34;77661.47;;;27.14
73673;BMP280;61972;19.480;-99.240;2022-12-18T08:04:00;77652.22;;;27.08
73673;BMP280;61972;19.480;-99.240;2022-12-18T08:06:26;77646.50;;;27.00
73673;BMP280;61972;19.480;-99.240;2022-12-18T08:08:53;77652.00;;;26.95
73673;BMP280;61972;19.480;-99.240;2022-12-18T08:11:19;77650.03;;;26.89
73673;BMP280;61972;19.480;-99.240;2022-12-18T08:13:45;77643.94;;;26.83
73673;BMP280;61972;19.480;-99.240;2022-12-18T08:16:11;77650.53;;;26.80
73673;BMP280;61972;19.480;-99.240;2022-12-18T08:18:38;77649.09;;;26.73
73673;BMP280;61972;19.480;-99.240;2022-12-18T08:21:10;77638.88;;;26.69
73673;BMP280;61972;19.480;-99.240;2022-12-18T08:23:37;77635.53;;;26.66
73673;BMP280;61972;19.480;-99.240;2022-12-18T08:26:03;77631.09;;;26.62
73673;BMP280;61972;19.480;-99.240;2022-12-18T08:28:30;77627.75;;;26.58
73673;BMP280;61972;19.480;-99.240;2022-12-18T08:30:56;77623.88;;;26.55
73673;BMP280;61972;19.480;-99.240;2022-12-18T08:33:22;77628.97;;;26.52
73673;BMP280;61972;19.480;-99.240;2022-12-18T08:35:48;77629.38;;;26.50
73673;BMP280;61972;19.480;-99.240;2022-12-18T08:38:14;77629.75;;;26.48
73673;BMP280;61972;19.480;-99.240;2022-12-18T08:40:40;77630.72;;;26.47
73673;BMP280;61972;19.480;-99.240;2022-12-18T08:43:08;77623.25;;;26.45
73673;BMP280;61972;19.480;-99.240;2022-12-18T08:45:53;77629.84;;;26.41
73673;BMP280;61972;19.480;-99.240;2022-12-18T08:48:19;77626.53;;;26.38
73673;BMP280;61972;19.480;-99.240;2022-12-18T08:50:56;77632.16;;;26.36
73673;BMP280;61972;19.480;-99.240;2022-12-18T08:53:25;77636.28;;;26.35
73673;BMP280;61972;19.480;-99.240;2022-12-18T08:55:52;77647.16;;;26.33
73673;BMP280;61972;19.480;-99.240;2022-12-18T08:58:19;77649.63;;;26.30
73673;BMP280;61972;19.480;-99.240;2022-12-18T09:00:45;77648.53;;;26.29
73673;BMP280;61972;19.480;-99.240;2022-12-18T09:03:16;77648.34;;;26.27
73673;BMP280;61972;19.480;-99.240;2022-12-18T09:05:43;77649.72;;;26.23
73673;BMP280;61972;19.480;-99.240;2022-12-18T09:08:11;77650.66;;;26.21
73673;BMP280;61972;19.480;-99.240;2022-12-18T09:10:44;77653.69;;;26.19
73673;BMP280;61972;19.480;-99.240;2022-12-18T09:13:12;77646.22;;;26.17
73673;BMP280;61972;19.480;-99.240;2022-12-18T09:15:49;77656.53;;;26.15
73673;BMP280;61972;19.480;-99.240;2022-12-18T09:18:17;77652.78;;;26.14
73673;BMP280;61972;19.480;-99.240;2022-12-18T09:20:44;77648.91;;;26.10
73673;BMP280;61972;19.480;-99.240;2022-12-18T09:23:11;77647.81;;;26.09
73673;BMP280;61972;19.480;-99.240;2022-12-18T09:25:38;77640.34;;;26.07
73673;BMP280;61972;19.480;-99.240;2022-12-18T09:28:12;77643.94;;;26.06
73673;BMP280;61972;19.480;-99.240;2022-12-18T09:30:40;77645.41;;;26.05
73673;BMP280;61972;19.480;-99.240;2022-12-18T09:33:07;77646.38;;;26.03
73673;BMP280;61972;19.480;-99.240;2022-12-18T09:35:36;77638.91;;;26.01
73673;BMP280;61972;19.480;-99.240;2022-12-18T09:38:02;77647.19;;;25.99
73673;BMP280;61972;19.480;-99.240;2022-12-18T09:40:36;77649.25;;;25.98
73673;BMP280;61972;19.480;-99.240;2022-12-18T09:43:06;77642.31;;;25.97
73673;BMP280;61972;19.480;-99.240;2022-12-18T09:45:44;77647.97;;;25.95
73673;BMP280;61972;19.480;-99.240;2022-12-18T09:48:21;77642.16;;;25.94
73673;BMP280;61972;19.480;-99.240;2022-12-18T09:50:48;77644.22;;;25.94
73673;BMP280;61972;19.480;-99.240;2022-12-18T09:53:20;77651.53;;;25.93
73673;BMP280;61972;19.480;-99.240;2022-12-18T09:55:48;77651.91;;;25.91
73673;BMP280;61972;19.480;-99.240;2022-12-18T09:58:24;77656.03;;;25.90
73673;BMP280;61972;19.480;-99.240;2022-12-18T10:00:53;77654.91;;;25.89
73673;BMP280;61972;19.480;-99.240;2022-12-18T10:03:20;77650.66;;;25.88
73673;BMP280;61972;19.480;-99.240;2022-12-18T10:06:07;77654.19;;;25.86
73673;BMP280;61972;19.480;-99.240;2022-12-18T10:11:33;77652.94;;;25.82
73673;BMP280;61972;19.480;-99.240;2022-12-18T10:19:35;77666.25;;;25.78
73673;BMP280;61972;19.480;-99.240;2022-12-18T10:24:59;77662.13;;;25.79
73673;BMP280;61972;19.480;-99.240;2022-12-18T10:27:36;77663.78;;;25.80
73673;BMP280;61972;19.480;-99.240;2022-12-18T10:30:15;77668.09;;;25.82
73673;BMP280;61972;19.480;-99.240;2022-12-18T10:32:41;77664.50;;;25.83
73673;BMP280;61972;19.480;-99.240;2022-12-18T10:35:22;77663.03;;;25.84
73673;BMP280;61972;19.480;-99.240;2022-12-18T10:44:19;77655.50;;;25.90
73673;BMP280;61972;19.480;-99.240;2022-12-18T10:46:51;77658.66;;;25.90
73673;BMP280;61972;19.480;-99.240;2022-12-18T10:49:29;77657.72;;;25.92
73673;BMP280;61972;19.480;-99.240;2022-12-18T10:52:15;77659.22;;;25.91
73673;BMP280;61972;19.480;-99.240;2022-12-18T10:54:53;77657.72;;;25.92
73673;BMP280;61972;19.480;-99.240;2022-12-18T10:59:54;77663.13;;;25.94
73673;BMP280;61972;19.480;-99.240;2022-12-18T11:02:40;77664.75;;;25.96
73673;BMP280;61972;19.480;-99.240;2022-12-18T11:05:30;77664.75;;;25.96
73673;BMP280;61972;19.480;-99.240;2022-12-18T11:07:58;77670.56;;;25.96
73673;BMP280;61972;19.480;-99.240;2022-12-18T11:10:28;77665.34;;;25.96
73673;BMP280;61972;19.480;-99.240;2022-12-18T11:12:56;77665.88;;;25.97
73673;BMP280;61972;19.480;-99.240;2022-12-18T11:15:33;77659.72;;;25.98
73673;BMP280;61972;19.480;-99.240;2022-12-18T11:18:00;77662.88;;;25.99
73673;BMP280;61972;19.480;-99.240;2022-12-18T11:20:32;77663.41;;;25.99
73673;BMP280;61972;19.480;-99.240;2022-12-18T11:23:04;77666.59;;;26.00
73673;BMP280;61972;19.480;-99.240;2022-12-18T11:25:32;77666.22;;;26.02
73673;BMP280;61972;19.480;-99.240;2022-12-18T11:28:35;77670.88;;;26.01
73673;BMP280;61972;19.480;-99.240;2022-12-18T11:31:28;77670.88;;;26.01
73673;BMP280;61972;19.480;-99.240;2022-12-18T11:34:01;77677.22;;;26.02
73673;BMP280;61972;19.480;-99.240;2022-12-18T11:36:33;77683.56;;;26.03
73673;BMP280;61972;19.480;-99.240;2022-12-18T11:39:07;77679.47;;;26.05
73673;BMP280;61972;19.480;-99.240;2022-12-18T11:41:45;77688.25;;;26.03
73673;BMP280;61972;19.480;-99.240;2022-12-18T11:44:51;77698.75;;;26.03
73673;BMP280;61972;19.480;-99.240;2022-12-18T11:50:56;77700.97;;;26.05
73673;BMP280;61972;19.480;-99.240;2022-12-18T11:53:03;77695.75;;;26.05
73673;BMP280;61972;19.480;-99.240;2022-12-18T11:55:39;77706.22;;;26.05
73673;BMP280;61972;19.480;-99.240;2022-12-18T12:01:41;77702.47;;;26.04
73673;BMP280;61972;19.480;-99.240;2022-12-18T12:04:27;77701.91;;;26.03
73673;BMP280;61972;19.480;-99.240;2022-12-18T12:10:28;77713.34;;;26.02
73673;BMP280;61972;19.480;-99.240;2022-12-18T12:16:16;77718.97;;;26.00
73673;BMP280;61972;19.480;-99.240;2022-12-18T12:19:06;77727.94;;;26.01
73673;BMP280;61972;19.480;-99.240;2022-12-18T12:21:40;77727.38;;;26.00
73673;BMP280;61972;19.480;-99.240;2022-12-18T12:26:45;77728.34;;;25.99
73673;BMP280;61972;19.480;-99.240;2022-12-18T12:29:53;77728.72;;;25.97
73673;BMP280;61972;19.480;-99.240;2022-12-18T12:35:12;77727.06;;;25.95
73673;BMP280;61972;19.480;-99.240;2022-12-18T12:40:20;77739.97;;;25.93
73673;BMP280;61972;19.480;-99.240;2022-12-18T12:42:59;77741.50;;;25.92
73673;BMP280;61972;19.480;-99.240;2022-12-18T12:45:50;77737.75;;;25.91
73673;BMP280;61972;19.480;-99.240;2022-12-18T12:50:53;77738.31;;;25.91
73673;BMP280;61972;19.480;-99.240;2022-12-18T12:55:53;77741.31;;;25.89
73673;BMP280;61972;19.480;-99.240;2022-12-18T13:01:08;77739.66;;;25.88
73673;BMP280;61972;19.480;-99.240;2022-12-18T13:03:43;77744.31;;;25.87
73673;BMP280;61972;19.480;-99.240;2022-12-18T13:09:20;77745.09;;;25.83
73673;BMP280;61972;19.480;-99.240;2022-12-18T13:11:47;77752.63;;;25.78
73673;BMP280;61972;19.480;-99.240;2022-12-18T13:14:37;77744.66;;;25.68
73673;BMP280;61972;19.480;-99.240;2022-12-18T13:20:04;77760.72;;;25.42
73673;BMP280;61972;19.480;-99.240;2022-12-18T13:22:56;77759.88;;;25.29
73673;BMP280;61972;19.480;-99.240;2022-12-18T13:25:38;77759.75;;;25.19
73673;BMP280;61972;19.480;-99.240;2022-12-18T13:28:15;77758.53;;;25.08
73673;BMP280;61972;19.480;-99.240;2022-12-18T13:30:46;77766.78;;;24.99
73673;BMP280;61972;19.480;-99.240;2022-12-18T13:35:53;77774.34;;;24.80
73673;BMP280;61972;19.480;-99.240;2022-12-18T13:38:33;77771.19;;;24.72
73673;BMP280;61972;19.480;-99.240;2022-12-18T13:43:50;77781.88;;;24.53
73673;BMP280;61972;19.480;-99.240;2022-12-18T13:51:44;77792.78;;;24.29
73673;BMP280;61972;19.480;-99.240;2022-12-18T13:54:40;77794.84;;;24.22
73673;BMP280;61972;19.480;-99.240;2022-12-18T13:57:35;77792.78;;;24.15
73673;BMP280;61972;19.480;-99.240;2022-12-18T14:02:49;77804.38;;;24.02
73673;BMP280;61972;19.480;-99.240;2022-12-18T14:05:23;77802.91;;;23.95
73673;BMP280;61972;19.480;-99.240;2022-12-18T14:07:49;77803.66;;;23.91
73673;BMP280;61972;19.480;-99.240;2022-12-18T14:10:16;77805.88;;;23.86
73673;BMP280;61972;19.480;-99.240;2022-12-18T14:12:47;77808.66;;;23.81
73673;BMP280;61972;19.480;-99.240;2022-12-18T14:17:58;77820.63;;;23.73
73673;BMP280;61972;19.480;-99.240;2022-12-18T14:20:26;77825.63;;;23.71
73673;BMP280;61972;19.480;-99.240;2022-12-18T14:22:54;77830.66;;;23.68
73673;BMP280;61972;19.480;-99.240;2022-12-18T14:25:24;77839.22;;;23.64
73673;BMP280;61972;19.480;-99.240;2022-12-18T14:30:38;77842.97;;;23.58
73673;BMP280;61972;19.480;-99.240;2022-12-18T14:33:30;77848.00;;;23.55
73673;BMP280;61972;19.480;-99.240;2022-12-18T14:36:04;77853.97;;;23.51
73673;BMP280;61972;19.480;-99.240;2022-12-18T14:38:38;77847.03;;;23.50
73673;BMP280;61972;19.480;-99.240;2022-12-18T14:41:10;77841.44;;;23.44
73673;BMP280;61972;19.480;-99.240;2022-12-18T14:43:39;77850.19;;;23.43
73673;BMP280;61972;19.480;-99.240;2022-12-18T14:46:43;77857.28;;;23.40
73673;BMP280;61972;19.480;-99.240;2022-12-18T14:51:56;77864.72;;;23.35
73673;BMP280;61972;19.480;-99.240;2022-12-18T14:54:24;77859.31;;;23.32
73673;BMP280;61972;19.480;-99.240;2022-12-18T14:57:00;77859.69;;;23.30
73673;BMP280;61972;19.480;-99.240;2022-12-18T14:59:28;77856.88;;;23.27
73673;BMP280;61972;19.480;-99.240;2022-12-18T15:04:45;77869.53;;;23.22
73673;BMP280;61972;19.480;-99.240;2022-12-18T15:07:12;77871.00;;;23.21
73673;BMP280;61972;19.480;-99.240;2022-12-18T15:09:41;77875.09;;;23.20
73673;BMP280;61972;19.480;-99.240;2022-12-18T15:12:39;77882.16;;;23.17
73673;BMP280;61972;19.480;-99.240;2022-12-18T15:26:09;77887.19;;;23.07
73673;BMP280;61972;19.480;-99.240;2022-12-18T15:31:17;77876.53;;;23.05
73673;BMP280;61972;19.480;-99.240;2022-12-18T15:36:20;77873.19;;;23.02
73673;BMP280;61972;19.480;-99.240;2022-12-18T15:38:49;77866.88;;;23.01
73673;BMP280;61972;19.480;-99.240;2022-12-18T15:41:17;77876.72;;;23.00
73673;BMP280;61972;19.480;-99.240;2022-12-18T15:43:45;77878.75;;;23.00
73673;BMP280;61972;19.480;-99.240;2022-12-18T15:46:17;77879.13;;;22.98
73673;BMP280;61972;19.480;-99.240;2022-12-18T15:48:46;77878.00;;;22.97
73673;BMP280;61972;19.480;-99.240;2022-12-18T15:51:34;77882.66;;;22.96
73673;BMP280;61972;19.480;-99.240;2022-12-18T15:54:04;77882.09;;;22.96
73673;BMP280;61972;19.480;-99.240;2022-12-18T15:56:31;77873.16;;;22.95
73673;BMP280;61972;19.480;-99.240;2022-12-18T15:59:20;77874.66;;;22.94
73673;BMP280;61972;19.480;-99.240;2022-12-18T16:01:49;77872.41;;;22.91
73673;BMP280;61972;19.480;-99.240;2022-12-18T16:04:18;77872.41;;;22.91
73673;BMP280;61972;19.480;-99.240;2022-12-18T16:06:48;77872.41;;;22.91
73673;BMP280;61972;19.480;-99.240;2022-12-18T16:09:14;77867.00;;;22.89
73673;BMP280;61972;19.480;-99.240;2022-12-18T16:11:43;77872.22;;;22.89
73673;BMP280;61972;19.480;-99.240;2022-12-18T16:14:26;77875.38;;;22.89
73673;BMP280;61972;19.480;-99.240;2022-12-18T16:17:01;77869.06;;;22.88